Time;durP1;ratioP1;P1;durP2;ratioP2;P2;SDS_P1;SDS_P2;PMS_P1;PMS_P2;Temp;Humidity;BMP_temperature;BMP_pressure;BME280_temperature;BME280_humidity;BME280_pressure;Samples;Min_cycle;Max_cycle;Signal;HPM_P1;HPM_P2
2021/11/23 00:02:02;;;;;;;3.45;1.80;;;14.80;96.70;;;;;;4885165;29;20032;-76
2021/11/23 00:04:41;;;;;;;3.40;2.08;;;14.80;96.70;;;;;;4890078;29;20070;-76
2021/11/23 00:07:09;;;;;;;2.47;1.80;;;14.80;96.70;;;;;;4890453;29;20113;-76
2021/11/23 00:09:37;;;;;;;3.35;1.95;;;14.80;96.70;;;;;;4873977;29;20151;-75
2021/11/23 00:12:06;;;;;;;3.05;1.85;;;14.80;96.70;;;;;;4871778;29;20515;-75
2021/11/23 00:14:35;;;;;;;2.22;1.80;;;14.80;96.70;;;;;;4891201;29;20400;-75
2021/11/23 00:17:03;;;;;;;2.80;1.95;;;14.80;96.70;;;;;;4870517;29;20052;-75
2021/11/23 00:19:31;;;;;;;2.85;2.00;;;14.80;96.70;;;;;;4893000;29;20503;-75
2021/11/23 00:22:00;;;;;;;2.47;2.13;;;14.80;96.70;;;;;;4871312;29;20057;-75
2021/11/23 00:24:30;;;;;;;2.35;1.92;;;14.80;96.70;;;;;;4889406;29;20100;-75
2021/11/23 00:26:58;;;;;;;1.95;1.65;;;14.80;96.70;;;;;;4886774;29;20575;-76
2021/11/23 00:29:27;;;;;;;2.33;1.98;;;14.80;96.70;;;;;;4859990;29;20489;-76
2021/11/23 00:31:55;;;;;;;3.15;2.22;;;14.70;96.70;;;;;;4892104;29;20147;-76
2021/11/23 00:34:24;;;;;;;1.92;1.73;;;14.70;96.70;;;;;;4875566;29;20067;-75
2021/11/23 00:36:52;;;;;;;2.92;1.95;;;14.70;96.70;;;;;;4889629;29;20344;-75
2021/11/23 00:39:22;;;;;;;2.35;1.63;;;14.80;96.70;;;;;;4889116;29;20048;-75
2021/11/23 00:41:50;;;;;;;2.97;1.75;;;14.70;96.70;;;;;;4889967;29;20053;-76
2021/11/23 00:44:19;;;;;;;3.28;1.50;;;14.70;96.70;;;;;;4877690;29;20104;-76
2021/11/23 00:46:49;;;;;;;3.13;1.77;;;14.70;96.70;;;;;;4869558;29;20056;-75
2021/11/23 00:49:20;;;;;;;3.20;2.15;;;14.70;96.70;;;;;;4870758;29;20060;-75
2021/11/23 00:51:48;;;;;;;2.92;1.88;;;14.70;96.70;;;;;;4885949;29;20081;-75
2021/11/23 00:54:16;;;;;;;2.67;1.70;;;14.70;96.70;;;;;;4877812;29;20600;-76
2021/11/23 00:56:46;;;;;;;3.20;1.85;;;14.70;96.70;;;;;;4873809;29;20413;-75
2021/11/23 00:59:14;;;;;;;4.00;1.58;;;14.60;96.70;;;;;;4874297;29;20052;-76
2021/11/23 01:01:42;;;;;;;2.70;1.75;;;14.60;96.70;;;;;;4890280;29;20085;-76
2021/11/23 01:04:10;;;;;;;3.75;2.10;;;14.60;96.70;;;;;;4873357;29;20060;-76
2021/11/23 01:06:38;;;;;;;2.20;1.50;;;14.60;96.70;;;;;;4874691;29;20058;-76
2021/11/23 01:09:07;;;;;;;2.17;1.80;;;14.60;96.70;;;;;;4873776;29;20163;-77
2021/11/23 01:11:35;;;;;;;2.38;1.83;;;14.60;96.70;;;;;;4873404;29;20505;-76
2021/11/23 01:14:07;;;;;;;2.00;1.70;;;14.60;96.70;;;;;;4872522;29;20386;-76
2021/11/23 01:16:36;;;;;;;1.75;1.33;;;14.60;96.70;;;;;;4867244;29;20041;-76
2021/11/23 01:19:06;;;;;;;3.30;1.67;;;14.50;96.70;;;;;;4889817;29;20499;-76
2021/11/23 01:21:35;;;;;;;3.40;1.88;;;14.50;96.70;;;;;;4888865;29;20045;-76
2021/11/23 01:24:04;;;;;;;1.85;1.25;;;14.50;96.70;;;;;;4885949;29;20160;-76
2021/11/23 01:26:33;;;;;;;2.10;1.60;;;14.50;96.70;;;;;;4855467;29;20468;-76
2021/11/23 01:29:01;;;;;;;1.98;1.50;;;14.50;96.70;;;;;;4872252;29;20096;-76
2021/11/23 01:31:31;;;;;;;1.52;1.33;;;14.50;96.70;;;;;;4873681;29;20568;-76
2021/11/23 01:33:59;;;;;;;2.13;1.60;;;14.50;96.70;;;;;;4883916;29;20037;-76
2021/11/23 01:36:27;;;;;;;2.42;1.80;;;14.50;96.70;;;;;;4881558;29;20148;-76
2021/11/23 01:38:55;;;;;;;1.83;1.48;;;14.50;96.70;;;;;;4888656;29;20050;-76
2021/11/23 01:41:24;;;;;;;2.80;1.50;;;14.50;96.70;;;;;;4872904;29;20048;-76
2021/11/23 01:43:52;;;;;;;3.30;1.80;;;14.50;96.70;;;;;;4869627;29;20070;-77
2021/11/23 01:46:20;;;;;;;2.28;1.70;;;14.50;96.70;;;;;;4871062;29;20083;-76
2021/11/23 01:48:49;;;;;;;3.75;1.65;;;14.60;96.70;;;;;;4887485;29;20052;-76
2021/11/23 01:51:18;;;;;;;2.38;1.60;;;14.60;96.70;;;;;;4871521;29;20044;-76
2021/11/23 01:53:46;;;;;;;2.38;1.40;;;14.50;96.70;;;;;;4874890;29;20037;-76
2021/11/23 01:56:15;;;;;;;3.15;1.80;;;14.50;96.70;;;;;;4873394;29;20108;-76
2021/11/23 01:58:43;;;;;;;2.30;1.73;;;14.50;96.70;;;;;;4886600;29;20055;-76
2021/11/23 02:01:11;;;;;;;2.20;1.67;;;14.40;96.70;;;;;;4871435;29;20368;-76
2021/11/23 02:03:40;;;;;;;2.13;1.77;;;14.40;96.70;;;;;;4887866;29;20507;-76
2021/11/23 02:06:10;;;;;;;3.00;1.60;;;14.40;96.70;;;;;;4869538;29;20136;-76
2021/11/23 02:08:38;;;;;;;2.55;1.58;;;14.40;96.70;;;;;;4868648;29;20108;-76
2021/11/23 02:11:06;;;;;;;2.58;1.67;;;14.40;96.70;;;;;;4885972;29;20055;-76
2021/11/23 02:13:35;;;;;;;5.55;1.88;;;14.40;96.70;;;;;;4886572;29;20048;-75
2021/11/23 02:16:03;;;;;;;3.72;1.90;;;14.40;96.70;;;;;;4887552;29;20152;-75
2021/11/23 02:18:31;;;;;;;1.55;1.38;;;14.30;96.70;;;;;;4870541;29;20405;-75
2021/11/23 02:21:02;;;;;;;2.00;1.45;;;14.30;96.70;;;;;;4869676;29;20141;-75
2021/11/23 02:23:31;;;;;;;2.03;1.33;;;14.30;96.70;;;;;;4889158;29;20343;-75
2021/11/23 02:25:59;;;;;;;1.85;1.48;;;14.30;96.70;;;;;;4872816;29;20501;-75
2021/11/23 02:28:27;;;;;;;2.08;1.40;;;14.30;96.70;;;;;;4870045;29;20160;-75
2021/11/23 02:30:57;;;;;;;3.78;1.83;;;14.30;96.70;;;;;;4888977;29;20036;-75
2021/11/23 02:33:28;;;;;;;1.83;1.50;;;14.30;96.70;;;;;;4867921;29;20055;-75
2021/11/23 02:36:01;;;;;;;2.45;1.60;;;14.30;96.70;;;;;;4887964;29;20137;-75
2021/11/23 02:38:30;;;;;;;1.67;1.58;;;14.30;96.70;;;;;;4869790;29;20207;-75
2021/11/23 02:40:58;;;;;;;2.10;1.40;;;14.30;96.70;;;;;;4886528;29;20052;-75
2021/11/23 02:43:27;;;;;;;2.80;1.38;;;14.30;96.70;;;;;;4878244;29;20418;-76
2021/11/23 02:45:55;;;;;;;2.30;1.50;;;14.30;96.70;;;;;;4869798;29;20048;-75
2021/11/23 02:48:24;;;;;;;2.53;1.25;;;14.30;96.70;;;;;;4885033;29;20060;-75
2021/11/23 02:51:14;;;;;;;2.55;1.52;;;14.30;96.70;;;;;;4890391;29;20478;-75
2021/11/23 02:53:46;;;;;;;2.38;1.35;;;14.30;96.70;;;;;;4871107;29;20459;-75
2021/11/23 02:56:15;;;;;;;3.47;1.50;;;14.30;96.70;;;;;;4870166;29;20400;-75
2021/11/23 02:58:46;;;;;;;2.08;1.13;;;14.30;96.70;;;;;;4886196;29;20191;-75
2021/11/23 03:01:17;;;;;;;1.80;1.23;;;14.30;96.70;;;;;;4870911;29;20595;-75
2021/11/23 03:03:45;;;;;;;2.05;1.00;;;14.30;96.70;;;;;;4888564;29;20040;-76
2021/11/23 03:06:17;;;;;;;3.00;1.23;;;14.30;96.70;;;;;;4859522;29;20052;-75
2021/11/23 03:08:48;;;;;;;2.15;1.52;;;14.30;96.70;;;;;;4852770;29;20456;-76
2021/11/23 03:11:18;;;;;;;1.63;0.98;;;14.20;96.70;;;;;;4885712;29;20044;-75
2021/11/23 03:13:47;;;;;;;1.27;1.00;;;14.30;96.70;;;;;;4875239;29;20574;-75
2021/11/23 03:16:15;;;;;;;2.17;1.52;;;14.30;96.70;;;;;;4872405;29;20040;-75
2021/11/23 03:18:43;;;;;;;1.10;0.80;;;14.30;96.70;;;;;;4888924;29;21065;-74
2021/11/23 03:21:11;;;;;;;1.50;1.10;;;14.30;96.70;;;;;;4869928;29;20064;-75
2021/11/23 03:23:40;;;;;;;1.70;1.13;;;14.30;96.70;;;;;;4884401;29;20048;-76
2021/11/23 03:26:10;;;;;;;1.92;0.90;;;14.30;96.70;;;;;;4890649;29;20144;-76
2021/11/23 03:28:38;;;;;;;1.73;0.82;;;14.30;96.70;;;;;;4870115;29;20056;-76
2021/11/23 03:31:07;;;;;;;2.65;1.00;;;14.30;96.70;;;;;;4870424;29;20055;-75
2021/11/23 03:33:35;;;;;;;1.48;1.00;;;14.30;96.70;;;;;;4870507;29;20408;-76
2021/11/23 03:36:04;;;;;;;1.15;0.82;;;14.30;96.70;;;;;;4885247;29;20041;-76
2021/11/23 03:38:32;;;;;;;1.48;1.08;;;14.30;96.70;;;;;;4869718;29;20449;-76
2021/11/23 03:41:00;;;;;;;1.40;1.02;;;14.30;96.70;;;;;;4874064;29;20063;-76
2021/11/23 03:43:29;;;;;;;2.65;1.10;;;14.30;96.70;;;;;;4887273;29;20132;-76
2021/11/23 03:45:57;;;;;;;2.42;1.15;;;14.30;96.70;;;;;;4870302;29;20071;-75
2021/11/23 03:48:25;;;;;;;1.73;1.10;;;14.30;96.70;;;;;;4869798;29;20059;-76
2021/11/23 03:50:53;;;;;;;1.40;1.15;;;14.30;96.70;;;;;;4886743;29;20637;-76
2021/11/23 03:53:22;;;;;;;2.20;1.17;;;14.30;96.70;;;;;;4883214;29;20072;-76
2021/11/23 03:55:50;;;;;;;2.30;1.27;;;14.30;96.70;;;;;;4887785;29;20148;-76
2021/11/23 03:58:18;;;;;;;1.90;1.15;;;14.30;96.70;;;;;;4868251;29;20044;-76
2021/11/23 04:00:48;;;;;;;2.15;1.10;;;14.20;96.70;;;;;;4886989;29;20049;-75
2021/11/23 04:03:17;;;;;;;2.00;1.20;;;14.20;96.70;;;;;;4888193;29;20092;-76
2021/11/23 04:05:45;;;;;;;5.90;1.50;;;14.20;96.70;;;;;;4870930;29;20037;-76
2021/11/23 04:08:13;;;;;;;1.63;1.17;;;14.20;96.70;;;;;;4886259;29;20108;-76
2021/11/23 04:10:42;;;;;;;1.92;1.40;;;14.20;96.70;;;;;;4869423;29;20100;-76
2021/11/23 04:13:10;;;;;;;2.90;1.38;;;14.20;96.70;;;;;;4872366;29;20052;-76
2021/11/23 04:15:38;;;;;;;2.83;1.40;;;14.20;96.70;;;;;;4887776;29;20047;-76
2021/11/23 04:18:08;;;;;;;3.03;1.52;;;14.10;96.70;;;;;;4889642;29;20109;-76
2021/11/23 04:20:37;;;;;;;2.22;1.48;;;14.10;96.70;;;;;;4869974;29;20508;-75
2021/11/23 04:23:06;;;;;;;3.22;1.73;;;14.10;96.70;;;;;;4854178;29;20037;-76
2021/11/23 04:25:35;;;;;;;3.78;1.70;;;14.10;96.70;;;;;;4892282;29;20402;-75
2021/11/23 04:28:04;;;;;;;2.88;1.60;;;14.00;96.70;;;;;;4869728;29;20036;-76
2021/11/23 04:30:32;;;;;;;2.50;1.58;;;14.00;96.70;;;;;;4889510;29;20072;-76
2021/11/23 04:33:00;;;;;;;3.03;1.60;;;14.00;96.70;;;;;;4889238;29;20073;-76
2021/11/23 04:35:31;;;;;;;4.00;1.67;;;14.00;96.70;;;;;;4889524;29;20045;-76
2021/11/23 04:37:59;;;;;;;2.83;1.52;;;14.00;96.70;;;;;;4890214;29;20051;-76
2021/11/23 04:40:27;;;;;;;2.53;1.48;;;14.00;96.70;;;;;;4891278;29;20056;-76
2021/11/23 04:42:56;;;;;;;2.53;1.30;;;14.00;96.70;;;;;;4855342;29;20639;-76
2021/11/23 04:45:24;;;;;;;2.08;1.30;;;14.00;96.70;;;;;;4882781;29;20504;-75
2021/11/23 04:47:52;;;;;;;1.83;1.30;;;14.00;96.70;;;;;;4889836;29;20064;-76
2021/11/23 04:50:20;;;;;;;2.75;1.23;;;14.00;96.70;;;;;;4875354;29;20054;-75
2021/11/23 04:52:51;;;;;;;2.45;1.27;;;14.00;96.70;;;;;;4888250;29;20044;-77
2021/11/23 04:55:19;;;;;;;1.70;1.30;;;14.00;96.70;;;;;;4873673;29;20051;-77
2021/11/23 04:57:47;;;;;;;3.28;1.40;;;13.90;96.70;;;;;;4891898;29;20407;-76
2021/11/23 05:00:18;;;;;;;1.60;1.15;;;13.90;96.70;;;;;;4867848;29;20567;-77
2021/11/23 05:02:46;;;;;;;2.13;1.13;;;13.90;96.70;;;;;;4884655;29;20060;-77
2021/11/23 05:05:15;;;;;;;1.25;1.10;;;13.90;96.70;;;;;;4870897;29;20131;-76
2021/11/23 05:07:45;;;;;;;2.35;1.00;;;13.90;96.70;;;;;;4870244;29;20048;-76
2021/11/23 05:10:15;;;;;;;1.38;1.00;;;13.90;96.70;;;;;;4886072;29;20147;-77
2021/11/23 05:12:44;;;;;;;1.85;1.25;;;13.90;96.70;;;;;;4872198;29;20430;-76
2021/11/23 05:15:12;;;;;;;2.03;1.33;;;13.90;96.70;;;;;;4873019;29;20040;-77
2021/11/23 05:17:42;;;;;;;1.73;1.00;;;13.90;96.70;;;;;;4890319;29;20056;-77
2021/11/23 05:20:11;;;;;;;2.92;1.30;;;13.90;96.70;;;;;;4859036;29;20049;-76
2021/11/23 05:22:41;;;;;;;2.38;0.90;;;13.90;96.70;;;;;;4888045;29;20085;-76
2021/11/23 05:25:10;;;;;;;2.03;1.27;;;13.90;96.70;;;;;;4889611;29;20045;-76
2021/11/23 05:27:40;;;;;;;1.70;1.15;;;13.90;96.70;;;;;;4871371;29;20036;-77
2021/11/23 05:30:11;;;;;;;1.90;1.25;;;13.80;96.70;;;;;;4872481;29;20049;-76
2021/11/23 05:32:41;;;;;;;4.57;1.38;;;13.90;96.70;;;;;;4874712;29;20060;-76
2021/11/23 05:35:10;;;;;;;2.03;1.40;;;13.90;96.70;;;;;;4886909;29;20044;-76
2021/11/23 05:37:38;;;;;;;2.13;1.42;;;13.80;96.70;;;;;;4870194;29;20063;-75
2021/11/23 05:40:08;;;;;;;1.77;1.20;;;13.90;96.70;;;;;;4870688;29;20060;-75
2021/11/23 05:42:36;;;;;;;3.17;1.33;;;13.90;96.70;;;;;;4884476;29;20554;-75
2021/11/23 05:45:10;;;;;;;2.83;1.30;;;13.80;96.70;;;;;;4888506;29;20057;-76
2021/11/23 05:47:40;;;;;;;2.47;1.58;;;13.80;96.70;;;;;;4878468;29;20384;-76
2021/11/23 05:50:09;;;;;;;3.05;1.60;;;13.80;96.70;;;;;;4873089;29;20045;-76
2021/11/23 05:52:37;;;;;;;2.42;1.38;;;13.80;96.70;;;;;;4869525;29;20049;-75
2021/11/23 05:55:06;;;;;;;2.70;1.30;;;13.80;96.70;;;;;;4888336;29;20463;-76
2021/11/23 05:57:34;;;;;;;2.00;1.40;;;13.80;96.70;;;;;;4888806;29;20048;-74
2021/11/23 06:00:03;;;;;;;2.75;1.30;;;13.80;96.70;;;;;;4893835;29;20422;-74
2021/11/23 06:02:33;;;;;;;1.52;1.10;;;13.80;96.70;;;;;;4883547;29;20048;-74
2021/11/23 06:05:03;;;;;;;3.38;1.63;;;13.80;96.70;;;;;;4872073;29;20071;-74
2021/11/23 06:07:31;;;;;;;1.30;0.90;;;13.80;96.70;;;;;;4870739;29;20096;-74
2021/11/23 06:09:59;;;;;;;3.67;1.52;;;13.80;96.70;;;;;;4871275;29;20588;-74
2021/11/23 06:12:30;;;;;;;3.45;1.58;;;13.80;96.70;;;;;;4891334;29;20448;-74
2021/11/23 06:14:59;;;;;;;1.80;1.10;;;13.80;96.70;;;;;;4892442;29;20418;-74
2021/11/23 06:17:28;;;;;;;2.60;1.35;;;13.80;96.70;;;;;;4870224;29;20443;-74
2021/11/23 06:19:58;;;;;;;3.38;1.40;;;13.80;96.70;;;;;;4872545;29;20052;-74
2021/11/23 06:22:26;;;;;;;3.00;1.63;;;13.80;96.70;;;;;;4870403;29;20040;-74
2021/11/23 06:24:55;;;;;;;4.07;1.30;;;13.80;96.70;;;;;;4875178;29;20056;-74
2021/11/23 06:27:24;;;;;;;2.05;1.02;;;13.80;96.70;;;;;;4870624;29;20044;-73
2021/11/23 06:29:52;;;;;;;2.25;1.20;;;13.80;96.70;;;;;;4871857;29;20120;-74
2021/11/23 06:32:21;;;;;;;2.47;1.08;;;13.80;96.70;;;;;;4866936;29;20136;-73
2021/11/23 06:34:49;;;;;;;2.05;1.30;;;13.80;96.70;;;;;;4857575;29;20501;-73
2021/11/23 06:37:19;;;;;;;2.25;1.40;;;13.80;96.70;;;;;;4887880;29;20032;-73
2021/11/23 06:39:47;;;;;;;2.35;1.20;;;13.80;96.70;;;;;;4892578;29;20052;-73
2021/11/23 06:42:15;;;;;;;3.20;1.38;;;13.80;96.70;;;;;;4867827;29;20056;-74
2021/11/23 06:44:44;;;;;;;2.08;1.17;;;13.80;96.70;;;;;;4886192;29;20052;-73
2021/11/23 06:47:12;;;;;;;3.65;1.33;;;13.80;96.70;;;;;;4887438;29;20440;-73
2021/11/23 06:49:41;;;;;;;1.80;1.40;;;13.80;96.70;;;;;;4871561;29;20055;-74
2021/11/23 06:52:09;;;;;;;1.58;1.20;;;13.80;96.70;;;;;;4866606;29;20139;-74
2021/11/23 06:54:39;;;;;;;3.20;1.30;;;13.80;96.70;;;;;;4888833;29;20151;-74
2021/11/23 06:57:08;;;;;;;2.15;1.30;;;13.80;96.70;;;;;;4870905;29;20072;-74
2021/11/23 06:59:37;;;;;;;1.40;1.13;;;13.80;96.70;;;;;;4870484;29;20055;-74
2021/11/23 07:02:06;;;;;;;2.00;1.17;;;13.90;96.70;;;;;;4888860;29;20056;-73
2021/11/23 07:04:35;;;;;;;4.05;1.30;;;13.90;96.70;;;;;;4851943;29;20048;-74
2021/11/23 07:07:04;;;;;;;3.20;1.23;;;13.90;96.70;;;;;;4853854;29;20527;-74
2021/11/23 07:09:32;;;;;;;1.63;1.20;;;13.90;96.70;;;;;;4855660;29;20055;-74
2021/11/23 07:12:03;;;;;;;2.17;1.48;;;13.90;96.70;;;;;;4823711;29;20068;-74
2021/11/23 07:14:32;;;;;;;2.55;1.23;;;13.90;96.70;;;;;;4870655;29;20590;-74
2021/11/23 07:17:00;;;;;;;2.13;1.30;;;13.90;96.70;;;;;;4873355;29;20049;-74
2021/11/23 07:19:28;;;;;;;2.50;0.95;;;13.90;96.70;;;;;;4872603;29;20044;-74
2021/11/23 07:21:57;;;;;;;3.67;1.42;;;13.90;96.70;;;;;;4885631;29;20606;-74
2021/11/23 07:24:26;;;;;;;2.00;1.20;;;13.90;96.70;;;;;;4886283;29;20040;-74
2021/11/23 07:26:55;;;;;;;3.15;1.38;;;13.90;96.70;;;;;;4875636;29;20033;-74
2021/11/23 07:29:24;;;;;;;2.65;1.35;;;13.90;96.70;;;;;;4870972;29;20452;-73
2021/11/23 07:31:53;;;;;;;4.53;1.60;;;13.90;96.70;;;;;;4873196;29;20144;-74
2021/11/23 07:34:21;;;;;;;2.22;1.20;;;13.90;96.70;;;;;;4872236;29;20052;-74
2021/11/23 07:36:49;;;;;;;1.58;0.90;;;13.90;96.70;;;;;;4887500;29;20125;-74
2021/11/23 07:39:18;;;;;;;2.95;1.17;;;13.90;96.70;;;;;;4887502;29;20055;-74
2021/11/23 07:41:46;;;;;;;1.75;1.10;;;13.90;96.70;;;;;;4856737;29;20148;-74
2021/11/23 07:44:18;;;;;;;2.83;1.20;;;13.90;96.70;;;;;;4864968;29;20045;-73
2021/11/23 07:46:48;;;;;;;1.50;1.02;;;13.90;96.70;;;;;;4854168;29;20049;-74
2021/11/23 07:49:17;;;;;;;3.17;1.13;;;13.90;96.70;;;;;;4871285;29;20530;-74
2021/11/23 07:51:46;;;;;;;1.63;0.85;;;13.90;96.70;;;;;;4838405;29;20056;-75
2021/11/23 07:54:15;;;;;;;3.05;1.35;;;13.90;96.70;;;;;;4867128;29;20052;-75
2021/11/23 07:56:43;;;;;;;2.08;1.10;;;14.00;96.70;;;;;;4857446;29;20192;-75
2021/11/23 07:59:12;;;;;;;3.15;1.10;;;14.00;96.70;;;;;;4870118;29;20048;-75
2021/11/23 08:01:41;;;;;;;3.50;0.93;;;14.00;96.70;;;;;;4859594;29;20049;-75
2021/11/23 08:04:11;;;;;;;1.40;0.90;;;14.00;96.70;;;;;;4856785;29;20048;-74
2021/11/23 08:06:39;;;;;;;3.67;1.55;;;14.00;96.70;;;;;;4856129;29;20049;-74
2021/11/23 08:09:08;;;;;;;3.60;1.55;;;14.00;96.70;;;;;;4858604;29;20582;-73
2021/11/23 08:11:37;;;;;;;2.28;0.95;;;14.00;96.70;;;;;;4870172;29;20716;-75
2021/11/23 08:14:05;;;;;;;2.22;1.25;;;14.10;96.70;;;;;;4854213;29;20033;-74
2021/11/23 08:16:33;;;;;;;2.67;1.10;;;14.10;96.70;;;;;;4870982;29;20483;-75
2021/11/23 08:19:02;;;;;;;3.05;1.25;;;14.10;96.70;;;;;;4857159;29;20045;-74
2021/11/23 08:21:32;;;;;;;2.03;1.02;;;14.10;96.70;;;;;;4873933;29;20033;-74
2021/11/23 08:24:00;;;;;;;3.45;1.17;;;14.20;96.70;;;;;;4854148;29;20512;-74
2021/11/23 08:26:28;;;;;;;4.68;1.50;;;14.20;96.70;;;;;;4856517;29;20077;-74
2021/11/23 08:28:57;;;;;;;2.45;1.20;;;14.30;96.70;;;;;;4853158;29;20130;-74
2021/11/23 08:31:25;;;;;;;3.30;1.10;;;14.30;96.70;;;;;;4868725;29;21564;-74
2021/11/23 08:33:53;;;;;;;2.75;1.35;;;14.30;96.70;;;;;;4855579;29;20045;-74
2021/11/23 08:36:22;;;;;;;1.60;0.98;;;14.40;96.70;;;;;;4854730;29;20122;-74
2021/11/23 08:38:51;;;;;;;1.48;0.98;;;14.40;96.70;;;;;;4871374;29;20052;-75
2021/11/23 08:41:20;;;;;;;3.83;0.85;;;14.40;96.70;;;;;;4878763;29;20048;-74
2021/11/23 08:43:48;;;;;;;1.85;0.95;;;14.50;96.70;;;;;;4874554;29;20060;-74
2021/11/23 08:46:16;;;;;;;1.95;0.82;;;14.50;96.70;;;;;;4894885;29;20045;-76
2021/11/23 08:48:45;;;;;;;1.90;1.05;;;14.60;96.70;;;;;;4880311;29;20372;-75
2021/11/23 08:51:17;;;;;;;2.95;1.05;;;14.60;96.70;;;;;;4891050;29;20412;-76
2021/11/23 08:53:46;;;;;;;4.15;1.45;;;14.60;96.70;;;;;;4890436;29;20117;-75
2021/11/23 08:56:15;;;;;;;2.22;1.20;;;14.70;96.70;;;;;;4893082;29;20045;-75
2021/11/23 08:58:47;;;;;;;2.08;1.15;;;14.70;96.70;;;;;;4870282;29;20052;-75
2021/11/23 09:01:15;;;;;;;2.20;1.00;;;14.70;96.70;;;;;;4874242;29;20049;-75
2021/11/23 09:03:44;;;;;;;1.48;1.08;;;14.70;96.70;;;;;;4860108;29;20056;-75
2021/11/23 09:06:12;;;;;;;2.72;1.15;;;14.70;96.70;;;;;;4873917;29;20575;-76
2021/11/23 09:08:46;;;;;;;2.95;0.98;;;14.80;96.70;;;;;;4875641;29;20496;-74
2021/11/23 09:11:15;;;;;;;2.20;0.80;;;14.80;96.70;;;;;;4888757;29;20044;-74
2021/11/23 09:13:44;;;;;;;1.83;0.90;;;14.80;96.70;;;;;;4871373;29;20052;-75
2021/11/23 09:16:13;;;;;;;1.52;0.95;;;14.90;96.70;;;;;;4873395;29;20048;-74
2021/11/23 09:18:41;;;;;;;2.70;1.27;;;14.90;96.70;;;;;;4859309;29;20143;-75
2021/11/23 09:21:10;;;;;;;2.83;0.90;;;14.90;96.70;;;;;;4872339;29;20052;-75
2021/11/23 09:23:40;;;;;;;3.58;1.20;;;15.00;96.70;;;;;;4872333;29;20049;-76
2021/11/23 09:26:09;;;;;;;2.03;0.95;;;15.00;96.70;;;;;;4873952;29;20131;-75
2021/11/23 09:28:39;;;;;;;2.38;1.00;;;15.00;96.70;;;;;;4871482;29;20044;-75
2021/11/23 09:31:08;;;;;;;2.40;1.10;;;15.10;96.70;;;;;;4872842;29;20117;-76
2021/11/23 09:33:37;;;;;;;2.17;0.90;;;15.10;96.70;;;;;;4890937;29;20127;-74
2021/11/23 09:36:07;;;;;;;1.15;0.80;;;15.20;96.70;;;;;;4891533;29;20507;-75
2021/11/23 09:38:37;;;;;;;2.63;1.63;;;15.30;96.70;;;;;;4860443;29;20107;-77
2021/11/23 09:41:06;;;;;;;2.33;1.10;;;15.40;96.70;;;;;;4878100;29;20071;-74
2021/11/23 09:43:35;;;;;;;1.88;1.02;;;15.50;96.70;;;;;;4882743;29;20052;-74
2021/11/23 09:46:07;;;;;;;2.08;1.08;;;15.50;96.70;;;;;;4889210;29;20041;-74
2021/11/23 09:48:39;;;;;;;3.13;0.88;;;15.60;96.70;;;;;;4881484;29;20120;-75
2021/11/23 09:51:13;;;;;;;1.88;1.13;;;15.70;96.70;;;;;;4874701;29;20431;-75
2021/11/23 09:53:41;;;;;;;1.58;1.02;;;15.70;96.70;;;;;;4895917;29;20048;-75
2021/11/23 09:56:09;;;;;;;2.15;1.13;;;15.80;96.70;;;;;;4859501;29;20048;-75
2021/11/23 09:58:37;;;;;;;1.55;0.70;;;15.80;96.70;;;;;;4872441;29;20051;-75
2021/11/23 10:01:09;;;;;;;2.58;1.00;;;15.90;96.70;;;;;;4888833;29;21391;-76
2021/11/23 10:03:38;;;;;;;2.85;1.10;;;15.90;96.70;;;;;;4887213;29;20040;-77
2021/11/23 10:06:09;;;;;;;1.20;0.88;;;16.00;96.70;;;;;;4860155;29;20047;-76
2021/11/23 10:08:40;;;;;;;2.70;1.17;;;16.00;96.70;;;;;;4872479;29;20108;-74
2021/11/23 10:11:10;;;;;;;1.48;0.75;;;16.10;96.70;;;;;;4889962;29;20169;-75
2021/11/23 10:13:41;;;;;;;1.65;0.90;;;16.10;96.70;;;;;;4887754;29;20097;-75
2021/11/23 10:16:12;;;;;;;1.73;0.90;;;16.10;96.70;;;;;;4860131;29;20139;-75
2021/11/23 10:18:51;;;;;;;2.33;0.80;;;16.00;96.70;;;;;;4875237;29;20187;-75
2021/11/23 10:21:24;;;;;;;1.92;1.10;;;15.90;96.70;;;;;;4872308;29;20093;-76
2021/11/23 10:23:55;;;;;;;5.75;1.05;;;16.00;96.70;;;;;;4878800;29;20425;-75
2021/11/23 10:26:28;;;;;;;2.45;1.15;;;16.10;96.70;;;;;;4878060;29;20048;-75
2021/11/23 10:28:58;;;;;;;2.15;1.13;;;16.20;96.70;;;;;;4876891;29;20052;-76
2021/11/23 10:31:31;;;;;;;1.42;0.85;;;16.20;96.70;;;;;;4874528;29;21080;-75
2021/11/23 10:34:02;;;;;;;2.00;1.20;;;16.20;96.70;;;;;;4890623;29;20112;-77
2021/11/23 10:36:32;;;;;;;1.45;0.95;;;16.10;96.70;;;;;;4869827;29;20571;-76
2021/11/23 10:39:06;;;;;;;3.70;0.98;;;16.00;96.70;;;;;;4890500;29;20044;-77
2021/11/23 10:41:41;;;;;;;1.77;1.10;;;15.90;96.70;;;;;;4885661;29;20052;-75
2021/11/23 10:44:16;;;;;;;2.85;1.10;;;15.90;96.70;;;;;;4888736;29;20139;-76
2021/11/23 10:46:53;;;;;;;1.30;1.00;;;15.90;96.70;;;;;;4885075;29;20068;-76
2021/11/23 10:49:28;;;;;;;1.10;0.93;;;15.90;96.70;;;;;;4891754;29;20040;-76
2021/11/23 10:51:57;;;;;;;2.28;1.25;;;15.80;96.70;;;;;;4865676;29;20693;-76
2021/11/23 10:54:29;;;;;;;3.65;1.20;;;15.80;96.70;;;;;;4888735;29;20048;-75
2021/11/23 10:56:58;;;;;;;1.67;1.25;;;15.80;96.70;;;;;;4872125;29;20059;-76
2021/11/23 10:59:32;;;;;;;1.42;1.15;;;15.70;96.70;;;;;;4869660;29;20064;-77
2021/11/23 11:02:02;;;;;;;2.35;1.27;;;15.70;96.70;;;;;;4888837;29;20033;-77
2021/11/23 11:04:34;;;;;;;2.42;1.23;;;15.60;96.70;;;;;;4879337;29;20058;-76
2021/11/23 11:07:03;;;;;;;2.67;1.20;;;15.60;96.70;;;;;;4888031;29;20132;-76
2021/11/23 11:09:32;;;;;;;2.20;1.50;;;15.60;96.70;;;;;;4891487;29;20068;-75
2021/11/23 11:12:00;;;;;;;2.78;1.50;;;15.60;96.70;;;;;;4873094;29;20040;-76
2021/11/23 11:14:35;;;;;;;1.90;1.13;;;15.60;96.70;;;;;;4871228;29;20045;-76
2021/11/23 11:17:07;;;;;;;1.60;1.10;;;15.70;96.70;;;;;;4870222;29;20283;-76
2021/11/23 11:19:46;;;;;;;1.95;1.15;;;15.60;96.70;;;;;;4888709;29;20580;-76
2021/11/23 11:22:15;;;;;;;2.33;1.10;;;15.70;96.70;;;;;;4873913;29;20452;-76
2021/11/23 11:25:02;;;;;;;3.70;1.50;;;15.70;96.70;;;;;;4871200;29;20041;-76
2021/11/23 11:27:39;;;;;;;2.75;1.17;;;15.80;96.70;;;;;;4888373;29;20045;-76
2021/11/23 11:30:28;;;;;;;1.52;1.10;;;15.90;96.70;;;;;;4870621;29;20405;-76
2021/11/23 11:33:12;;;;;;;1.38;0.93;;;16.10;96.70;;;;;;4876019;29;20120;-75
2021/11/23 11:35:42;;;;;;;2.15;0.80;;;16.10;96.70;;;;;;4889942;29;20044;-76
2021/11/23 11:38:39;;;;;;;1.52;1.05;;;16.00;96.70;;;;;;4872631;29;20127;-76
2021/11/23 11:41:28;;;;;;;3.03;1.40;;;16.20;96.70;;;;;;4892843;29;20530;-76
2021/11/23 11:44:19;;;;;;;2.00;1.00;;;16.50;96.70;;;;;;4891565;29;20044;-76
2021/11/23 11:47:00;;;;;;;1.85;1.00;;;16.60;96.70;;;;;;4891907;29;20056;-76
2021/11/23 11:50:06;;;;;;;2.20;1.17;;;16.90;96.70;;;;;;4877716;29;20048;-76
2021/11/23 11:53:05;;;;;;;1.20;0.90;;;17.10;96.70;;;;;;4891835;29;20056;-76
2021/11/23 11:55:36;;;;;;;1.92;1.00;;;17.10;96.70;;;;;;4892795;29;20040;-76
2021/11/23 11:58:05;;;;;;;1.25;0.95;;;17.00;96.70;;;;;;4875857;29;20048;-76
2021/11/23 12:00:41;;;;;;;3.80;1.05;;;16.80;96.70;;;;;;4871566;29;20059;-76
2021/11/23 12:03:35;;;;;;;1.92;1.10;;;16.60;96.70;;;;;;4875021;29;20053;-76
2021/11/23 12:06:07;;;;;;;1.95;0.95;;;16.40;96.70;;;;;;4874283;29;20948;-76
2021/11/23 12:08:38;;;;;;;1.30;0.90;;;16.30;96.70;;;;;;4876029;29;20032;-76
2021/11/23 12:11:08;;;;;;;2.05;1.20;;;16.30;96.70;;;;;;4886577;29;20056;-76
2021/11/23 12:13:44;;;;;;;3.65;1.60;;;16.30;96.70;;;;;;4876845;29;20151;-77
2021/11/23 12:16:16;;;;;;;1.98;1.38;;;16.30;96.70;;;;;;4890321;29;20222;-77
2021/11/23 12:19:10;;;;;;;2.45;1.85;;;16.30;96.70;;;;;;4891386;29;20048;-76
2021/11/23 12:21:52;;;;;;;1.50;1.25;;;16.40;96.70;;;;;;4875190;29;20101;-76
2021/11/23 12:24:26;;;;;;;3.10;1.48;;;16.40;96.70;;;;;;4877576;29;20044;-76
2021/11/23 12:26:56;;;;;;;3.28;1.70;;;16.40;96.70;;;;;;4896940;29;20422;-76
2021/11/23 12:29:29;;;;;;;3.35;1.60;;;16.40;96.70;;;;;;4888970;29;20075;-76
2021/11/23 12:31:58;;;;;;;3.65;2.10;;;16.50;96.70;;;;;;4886065;29;20119;-76
2021/11/23 12:34:26;;;;;;;3.25;2.28;;;16.60;96.70;;;;;;4892915;29;20053;-76
2021/11/23 12:36:58;;;;;;;2.05;1.65;;;16.70;96.70;;;;;;4874837;29;20093;-77
2021/11/23 12:39:34;;;;;;;2.22;1.38;;;16.60;96.70;;;;;;4878036;29;20499;-74
2021/11/23 12:42:05;;;;;;;2.70;1.40;;;16.50;96.70;;;;;;4890733;29;20221;-75
2021/11/23 12:44:39;;;;;;;2.17;1.63;;;16.60;96.70;;;;;;4882718;29;20044;-76
2021/11/23 12:47:10;;;;;;;3.35;1.73;;;16.70;96.70;;;;;;4874517;29;20448;-76
2021/11/23 12:49:39;;;;;;;2.97;1.48;;;16.60;96.70;;;;;;4891272;29;20071;-75
2021/11/23 12:52:11;;;;;;;2.20;1.27;;;16.40;96.70;;;;;;4889260;29;20526;-75
2021/11/23 12:54:41;;;;;;;3.25;1.63;;;16.20;96.70;;;;;;4889740;29;20135;-76
2021/11/23 12:57:11;;;;;;;3.17;1.90;;;16.30;96.70;;;;;;4893387;29;20139;-76
2021/11/23 12:59:42;;;;;;;3.05;1.13;;;16.50;96.70;;;;;;4895515;29;20185;-75
2021/11/23 13:02:36;;;;;;;3.63;1.45;;;16.60;96.70;;;;;;4878722;29;20111;-76
2021/11/23 13:05:10;;;;;;;1.85;1.25;;;16.60;96.70;;;;;;4873315;29;20160;-75